sensor_id;sensor_type;location;lat;lon;timestamp;temperature;humidity
16532;DHT22;66872;63.142;14.482;2023-12-20T00:00:55;16.30;28.00
16532;DHT22;66872;63.142;14.482;2023-12-20T00:03:21;16.20;27.50
16532;DHT22;66872;63.142;14.482;2023-12-20T00:05:47;16.30;27.50
16532;DHT22;66872;63.142;14.482;2023-12-20T00:08:13;16.30;27.50
16532;DHT22;66872;63.142;14.482;2023-12-20T00:10:40;16.30;27.50
16532;DHT22;66872;63.142;14.482;2023-12-20T00:13:06;16.20;27.40
16532;DHT22;66872;63.142;14.482;2023-12-20T00:15:33;16.30;27.50
16532;DHT22;66872;63.142;14.482;2023-12-20T00:17:59;16.30;27.50
16532;DHT22;66872;63.142;14.482;2023-12-20T00:20:25;16.30;27.50
16532;DHT22;66872;63.142;14.482;2023-12-20T00:22:50;16.30;27.50
16532;DHT22;66872;63.142;14.482;2023-12-20T00:25:16;16.30;27.50
16532;DHT22;66872;63.142;14.482;2023-12-20T00:27:42;16.20;27.40
16532;DHT22;66872;63.142;14.482;2023-12-20T00:30:08;16.20;27.50
16532;DHT22;66872;63.142;14.482;2023-12-20T00:32:35;16.20;27.50
16532;DHT22;66872;63.142;14.482;2023-12-20T00:35:01;16.30;27.60
16532;DHT22;66872;63.142;14.482;2023-12-20T00:37:27;16.20;27.50
16532;DHT22;66872;63.142;14.482;2023-12-20T00:39:52;16.20;27.50
16532;DHT22;66872;63.142;14.482;2023-12-20T00:42:18;16.20;27.50
16532;DHT22;66872;63.142;14.482;2023-12-20T00:44:44;16.20;27.50
16532;DHT22;66872;63.142;14.482;2023-12-20T00:47:10;16.20;27.50
16532;DHT22;66872;63.142;14.482;2023-12-20T00:49:35;16.30;27.60
16532;DHT22;66872;63.142;14.482;2023-12-20T00:52:01;16.30;27.60
16532;DHT22;66872;63.142;14.482;2023-12-20T00:54:27;16.20;27.50
16532;DHT22;66872;63.142;14.482;2023-12-20T00:56:52;16.20;27.60
16532;DHT22;66872;63.142;14.482;2023-12-20T00:59:18;16.20;27.60
16532;DHT22;66872;63.142;14.482;2023-12-20T01:01:44;16.20;27.60
16532;DHT22;66872;63.142;14.482;2023-12-20T01:04:10;16.20;27.60
16532;DHT22;66872;63.142;14.482;2023-12-20T01:06:36;16.20;27.60
16532;DHT22;66872;63.142;14.482;2023-12-20T01:09:01;16.20;27.60
16532;DHT22;66872;63.142;14.482;2023-12-20T01:11:27;16.20;27.60
16532;DHT22;66872;63.142;14.482;2023-12-20T01:13:53;16.30;27.70
16532;DHT22;66872;63.142;14.482;2023-12-20T01:16:18;16.20;27.60
16532;DHT22;66872;63.142;14.482;2023-12-20T01:18:44;16.20;27.60
16532;DHT22;66872;63.142;14.482;2023-12-20T01:21:10;16.20;27.60
16532;DHT22;66872;63.142;14.482;2023-12-20T01:23:36;16.20;27.50
16532;DHT22;66872;63.142;14.482;2023-12-20T01:26:01;16.30;27.60
16532;DHT22;66872;63.142;14.482;2023-12-20T01:28:28;16.30;27.60
16532;DHT22;66872;63.142;14.482;2023-12-20T01:30:54;16.30;27.60
16532;DHT22;66872;63.142;14.482;2023-12-20T01:33:19;16.30;27.60
16532;DHT22;66872;63.142;14.482;2023-12-20T01:35:45;16.30;27.60
16532;DHT22;66872;63.142;14.482;2023-12-20T01:38:10;16.30;27.60
16532;DHT22;66872;63.142;14.482;2023-12-20T01:40:36;16.20;27.60
16532;DHT22;66872;63.142;14.482;2023-12-20T01:43:07;16.30;27.70
16532;DHT22;66872;63.142;14.482;2023-12-20T01:45:33;16.20;27.70
16532;DHT22;66872;63.142;14.482;2023-12-20T01:48:00;16.20;27.70
16532;DHT22;66872;63.142;14.482;2023-12-20T01:50:28;16.20;27.70
16532;DHT22;66872;63.142;14.482;2023-12-20T01:52:55;16.20;27.70
16532;DHT22;66872;63.142;14.482;2023-12-20T01:55:23;16.20;27.80
16532;DHT22;66872;63.142;14.482;2023-12-20T01:57:50;16.10;27.80
16532;DHT22;66872;63.142;14.482;2023-12-20T02:00:16;16.10;27.80
16532;DHT22;66872;63.142;14.482;2023-12-20T02:02:44;16.20;27.90
16532;DHT22;66872;63.142;14.482;2023-12-20T02:05:11;16.10;27.80
16532;DHT22;66872;63.142;14.482;2023-12-20T02:07:37;16.20;27.90
16532;DHT22;66872;63.142;14.482;2023-12-20T02:10:03;16.20;27.90
16532;DHT22;66872;63.142;14.482;2023-12-20T02:12:30;16.20;27.80
16532;DHT22;66872;63.142;14.482;2023-12-20T02:14:55;16.20;27.80
16532;DHT22;66872;63.142;14.482;2023-12-20T02:17:22;16.20;27.80
16532;DHT22;66872;63.142;14.482;2023-12-20T02:19:49;16.20;27.80
16532;DHT22;66872;63.142;14.482;2023-12-20T02:22:14;16.20;27.80
16532;DHT22;66872;63.142;14.482;2023-12-20T02:24:41;16.20;27.90
16532;DHT22;66872;63.142;14.482;2023-12-20T02:27:08;16.20;27.90
16532;DHT22;66872;63.142;14.482;2023-12-20T02:29:34;16.20;27.90
16532;DHT22;66872;63.142;14.482;2023-12-20T02:32:00;16.20;27.90
16532;DHT22;66872;63.142;14.482;2023-12-20T02:34:26;16.20;27.90
16532;DHT22;66872;63.142;14.482;2023-12-20T02:36:51;16.20;27.80
16532;DHT22;66872;63.142;14.482;2023-12-20T02:39:18;16.20;27.80
16532;DHT22;66872;63.142;14.482;2023-12-20T02:41:44;16.20;27.80
16532;DHT22;66872;63.142;14.482;2023-12-20T02:44:10;16.20;27.80
16532;DHT22;66872;63.142;14.482;2023-12-20T02:46:35;16.20;27.80
16532;DHT22;66872;63.142;14.482;2023-12-20T02:49:01;16.20;27.80
16532;DHT22;66872;63.142;14.482;2023-12-20T02:51:27;16.20;27.80
16532;DHT22;66872;63.142;14.482;2023-12-20T02:53:52;16.20;27.80
16532;DHT22;66872;63.142;14.482;2023-12-20T02:56:18;16.20;27.80
16532;DHT22;66872;63.142;14.482;2023-12-20T02:58:43;16.20;27.80
16532;DHT22;66872;63.142;14.482;2023-12-20T03:01:09;16.20;27.80
16532;DHT22;66872;63.142;14.482;2023-12-20T03:03:35;16.20;27.80
16532;DHT22;66872;63.142;14.482;2023-12-20T03:06:00;16.20;27.80
16532;DHT22;66872;63.142;14.482;2023-12-20T03:08:26;16.20;27.80
16532;DHT22;66872;63.142;14.482;2023-12-20T03:10:52;16.20;27.80
16532;DHT22;66872;63.142;14.482;2023-12-20T03:13:19;16.20;27.80
16532;DHT22;66872;63.142;14.482;2023-12-20T03:15:45;16.20;27.80
16532;DHT22;66872;63.142;14.482;2023-12-20T03:18:13;16.20;27.80
16532;DHT22;66872;63.142;14.482;2023-12-20T03:20:39;16.20;27.80
16532;DHT22;66872;63.142;14.482;2023-12-20T03:23:06;16.20;27.70
16532;DHT22;66872;63.142;14.482;2023-12-20T03:25:32;16.20;27.70
16532;DHT22;66872;63.142;14.482;2023-12-20T03:27:57;16.20;27.70
16532;DHT22;66872;63.142;14.482;2023-12-20T03:30:23;16.20;27.70
16532;DHT22;66872;63.142;14.482;2023-12-20T03:32:49;16.20;27.70
16532;DHT22;66872;63.142;14.482;2023-12-20T03:35:14;16.20;27.70
16532;DHT22;66872;63.142;14.482;2023-12-20T03:37:40;16.20;27.70
16532;DHT22;66872;63.142;14.482;2023-12-20T03:40:06;16.20;27.70
16532;DHT22;66872;63.142;14.482;2023-12-20T03:42:32;16.20;27.70
16532;DHT22;66872;63.142;14.482;2023-12-20T03:44:57;16.20;27.70
16532;DHT22;66872;63.142;14.482;2023-12-20T03:47:23;16.20;27.70
16532;DHT22;66872;63.142;14.482;2023-12-20T03:49:48;16.20;27.70
16532;DHT22;66872;63.142;14.482;2023-12-20T03:52:14;16.20;27.70
16532;DHT22;66872;63.142;14.482;2023-12-20T03:54:40;16.20;27.70
16532;DHT22;66872;63.142;14.482;2023-12-20T03:57:07;16.20;27.70
16532;DHT22;66872;63.142;14.482;2023-12-20T03:59:36;16.20;27.70
16532;DHT22;66872;63.142;14.482;2023-12-20T04:02:03;16.20;27.70
16532;DHT22;66872;63.142;14.482;2023-12-20T04:04:28;16.20;27.70
16532;DHT22;66872;63.142;14.482;2023-12-20T04:06:54;16.20;27.70
16532;DHT22;66872;63.142;14.482;2023-12-20T04:09:19;16.20;27.70
16532;DHT22;66872;63.142;14.482;2023-12-20T04:11:45;16.20;27.70
16532;DHT22;66872;63.142;14.482;2023-12-20T04:14:11;16.20;27.60
16532;DHT22;66872;63.142;14.482;2023-12-20T04:16:36;16.20;27.60
16532;DHT22;66872;63.142;14.482;2023-12-20T04:19:02;16.20;27.60
16532;DHT22;66872;63.142;14.482;2023-12-20T04:21:28;16.20;27.60
16532;DHT22;66872;63.142;14.482;2023-12-20T04:23:53;16.20;27.60
16532;DHT22;66872;63.142;14.482;2023-12-20T04:26:19;16.20;27.60
16532;DHT22;66872;63.142;14.482;2023-12-20T04:28:44;16.20;27.60
16532;DHT22;66872;63.142;14.482;2023-12-20T04:31:10;16.20;27.60
16532;DHT22;66872;63.142;14.482;2023-12-20T04:33:36;16.20;27.60
16532;DHT22;66872;63.142;14.482;2023-12-20T04:36:01;16.20;27.60
16532;DHT22;66872;63.142;14.482;2023-12-20T04:38:27;16.20;27.60
16532;DHT22;66872;63.142;14.482;2023-12-20T04:40:53;16.20;27.60
16532;DHT22;66872;63.142;14.482;2023-12-20T04:43:18;16.20;27.70
16532;DHT22;66872;63.142;14.482;2023-12-20T04:45:44;16.20;27.70
16532;DHT22;66872;63.142;14.482;2023-12-20T04:48:09;16.20;27.70
16532;DHT22;66872;63.142;14.482;2023-12-20T04:50:35;16.20;27.70
16532;DHT22;66872;63.142;14.482;2023-12-20T04:53:01;16.20;27.70
16532;DHT22;66872;63.142;14.482;2023-12-20T04:55:26;16.20;27.70
16532;DHT22;66872;63.142;14.482;2023-12-20T04:57:52;16.10;27.70
16532;DHT22;66872;63.142;14.482;2023-12-20T05:00:18;16.20;27.70
16532;DHT22;66872;63.142;14.482;2023-12-20T05:02:43;16.20;27.70
16532;DHT22;66872;63.142;14.482;2023-12-20T05:05:09;16.20;27.70
16532;DHT22;66872;63.142;14.482;2023-12-20T05:07:35;16.20;27.70
16532;DHT22;66872;63.142;14.482;2023-12-20T05:10:00;16.20;27.70
16532;DHT22;66872;63.142;14.482;2023-12-20T05:12:26;16.20;27.70
16532;DHT22;66872;63.142;14.482;2023-12-20T05:14:52;16.20;27.70
16532;DHT22;66872;63.142;14.482;2023-12-20T05:17:18;16.20;27.70
16532;DHT22;66872;63.142;14.482;2023-12-20T05:19:43;16.20;27.70
16532;DHT22;66872;63.142;14.482;2023-12-20T05:22:09;16.20;27.70
16532;DHT22;66872;63.142;14.482;2023-12-20T05:24:35;16.20;27.70
16532;DHT22;66872;63.142;14.482;2023-12-20T05:27:00;16.10;27.60
16532;DHT22;66872;63.142;14.482;2023-12-20T05:29:26;16.20;27.70
16532;DHT22;66872;63.142;14.482;2023-12-20T05:31:52;16.20;27.70
16532;DHT22;66872;63.142;14.482;2023-12-20T05:34:17;16.20;27.70
16532;DHT22;66872;63.142;14.482;2023-12-20T05:36:43;16.20;27.70
16532;DHT22;66872;63.142;14.482;2023-12-20T05:39:09;16.10;27.60
16532;DHT22;66872;63.142;14.482;2023-12-20T05:41:34;16.20;27.70
16532;DHT22;66872;63.142;14.482;2023-12-20T05:44:00;16.20;27.70
16532;DHT22;66872;63.142;14.482;2023-12-20T05:46:26;16.20;27.70
16532;DHT22;66872;63.142;14.482;2023-12-20T05:48:51;16.20;27.70
16532;DHT22;66872;63.142;14.482;2023-12-20T05:51:17;16.20;27.70
16532;DHT22;66872;63.142;14.482;2023-12-20T05:53:44;16.20;27.70
16532;DHT22;66872;63.142;14.482;2023-12-20T05:56:10;16.20;27.70
16532;DHT22;66872;63.142;14.482;2023-12-20T05:58:36;16.20;27.70
16532;DHT22;66872;63.142;14.482;2023-12-20T06:01:05;16.20;27.70
16532;DHT22;66872;63.142;14.482;2023-12-20T06:03:30;16.20;27.70
16532;DHT22;66872;63.142;14.482;2023-12-20T06:05:56;16.20;27.70
16532;DHT22;66872;63.142;14.482;2023-12-20T06:08:22;16.20;27.70
16532;DHT22;66872;63.142;14.482;2023-12-20T06:10:49;16.20;27.60
16532;DHT22;66872;63.142;14.482;2023-12-20T06:13:14;16.20;27.70
16532;DHT22;66872;63.142;14.482;2023-12-20T06:15:40;16.10;27.60
16532;DHT22;66872;63.142;14.482;2023-12-20T06:18:06;16.10;27.60
16532;DHT22;66872;63.142;14.482;2023-12-20T06:20:32;16.10;27.70
16532;DHT22;66872;63.142;14.482;2023-12-20T06:22:58;16.10;27.70
16532;DHT22;66872;63.142;14.482;2023-12-20T06:25:24;16.10;27.70
16532;DHT22;66872;63.142;14.482;2023-12-20T06:27:50;16.10;27.70
16532;DHT22;66872;63.142;14.482;2023-12-20T06:30:16;16.10;27.70
16532;DHT22;66872;63.142;14.482;2023-12-20T06:32:42;16.10;28.20
16532;DHT22;66872;63.142;14.482;2023-12-20T06:35:08;16.10;27.70
16532;DHT22;66872;63.142;14.482;2023-12-20T06:37:34;16.10;27.70
16532;DHT22;66872;63.142;14.482;2023-12-20T06:40:00;16.10;27.70
16532;DHT22;66872;63.142;14.482;2023-12-20T06:42:26;16.10;27.70
16532;DHT22;66872;63.142;14.482;2023-12-20T06:44:52;16.10;27.70
16532;DHT22;66872;63.142;14.482;2023-12-20T06:47:18;16.10;27.70
16532;DHT22;66872;63.142;14.482;2023-12-20T06:49:43;16.00;27.70
16532;DHT22;66872;63.142;14.482;2023-12-20T06:52:09;16.00;27.70
16532;DHT22;66872;63.142;14.482;2023-12-20T06:54:35;16.10;27.70
16532;DHT22;66872;63.142;14.482;2023-12-20T06:57:01;16.10;27.70
16532;DHT22;66872;63.142;14.482;2023-12-20T06:59:29;16.10;27.70
16532;DHT22;66872;63.142;14.482;2023-12-20T07:01:55;16.10;27.70
16532;DHT22;66872;63.142;14.482;2023-12-20T07:04:20;16.10;27.70
16532;DHT22;66872;63.142;14.482;2023-12-20T07:06:50;16.00;27.70
16532;DHT22;66872;63.142;14.482;2023-12-20T07:09:17;16.00;27.70
16532;DHT22;66872;63.142;14.482;2023-12-20T07:11:43;16.00;27.70
16532;DHT22;66872;63.142;14.482;2023-12-20T07:14:08;16.00;27.70
16532;DHT22;66872;63.142;14.482;2023-12-20T07:16:34;16.00;27.70
16532;DHT22;66872;63.142;14.482;2023-12-20T07:19:00;16.00;27.70
16532;DHT22;66872;63.142;14.482;2023-12-20T07:21:26;16.00;27.80
16532;DHT22;66872;63.142;14.482;2023-12-20T07:23:51;16.00;27.70
16532;DHT22;66872;63.142;14.482;2023-12-20T07:26:17;16.00;27.80
16532;DHT22;66872;63.142;14.482;2023-12-20T07:28:43;16.00;27.80
16532;DHT22;66872;63.142;14.482;2023-12-20T07:31:08;16.00;27.80
16532;DHT22;66872;63.142;14.482;2023-12-20T07:33:34;16.00;27.70
16532;DHT22;66872;63.142;14.482;2023-12-20T07:36:00;16.00;27.70
16532;DHT22;66872;63.142;14.482;2023-12-20T07:38:26;16.00;27.70
16532;DHT22;66872;63.142;14.482;2023-12-20T07:40:52;16.00;27.80
16532;DHT22;66872;63.142;14.482;2023-12-20T07:43:17;16.00;27.80
16532;DHT22;66872;63.142;14.482;2023-12-20T07:45:43;16.00;27.80
16532;DHT22;66872;63.142;14.482;2023-12-20T07:48:09;16.00;27.80
16532;DHT22;66872;63.142;14.482;2023-12-20T07:50:34;16.00;27.70
16532;DHT22;66872;63.142;14.482;2023-12-20T07:53:00;16.00;28.20
16532;DHT22;66872;63.142;14.482;2023-12-20T07:55:26;16.00;27.80
16532;DHT22;66872;63.142;14.482;2023-12-20T07:57:53;16.00;27.80
16532;DHT22;66872;63.142;14.482;2023-12-20T08:00:18;16.00;27.80
16532;DHT22;66872;63.142;14.482;2023-12-20T08:02:44;16.00;27.70
16532;DHT22;66872;63.142;14.482;2023-12-20T08:05:10;16.00;27.80
16532;DHT22;66872;63.142;14.482;2023-12-20T08:07:36;16.00;27.80
16532;DHT22;66872;63.142;14.482;2023-12-20T08:10:02;16.00;27.80
16532;DHT22;66872;63.142;14.482;2023-12-20T08:12:27;16.00;27.80
16532;DHT22;66872;63.142;14.482;2023-12-20T08:14:54;16.00;27.80
16532;DHT22;66872;63.142;14.482;2023-12-20T08:17:20;16.00;27.80
16532;DHT22;66872;63.142;14.482;2023-12-20T08:19:45;15.90;27.70
16532;DHT22;66872;63.142;14.482;2023-12-20T08:22:11;15.90;27.70
16532;DHT22;66872;63.142;14.482;2023-12-20T08:24:37;15.90;27.70
16532;DHT22;66872;63.142;14.482;2023-12-20T08:27:04;15.90;27.70
16532;DHT22;66872;63.142;14.482;2023-12-20T08:29:29;16.00;27.80
16532;DHT22;66872;63.142;14.482;2023-12-20T08:31:55;16.00;27.80
16532;DHT22;66872;63.142;14.482;2023-12-20T08:34:22;15.90;27.80
16532;DHT22;66872;63.142;14.482;2023-12-20T08:36:47;15.90;27.70
16532;DHT22;66872;63.142;14.482;2023-12-20T08:39:13;15.90;27.70
16532;DHT22;66872;63.142;14.482;2023-12-20T08:41:39;16.00;27.80
16532;DHT22;66872;63.142;14.482;2023-12-20T08:44:04;15.90;27.70
16532;DHT22;66872;63.142;14.482;2023-12-20T08:46:30;15.90;27.70
16532;DHT22;66872;63.142;14.482;2023-12-20T08:48:56;15.90;27.70
16532;DHT22;66872;63.142;14.482;2023-12-20T08:51:21;16.00;27.70
16532;DHT22;66872;63.142;14.482;2023-12-20T08:53:49;16.00;27.70
16532;DHT22;66872;63.142;14.482;2023-12-20T08:56:15;15.90;27.70
16532;DHT22;66872;63.142;14.482;2023-12-20T08:58:41;15.90;27.70
16532;DHT22;66872;63.142;14.482;2023-12-20T09:01:07;16.00;27.70
16532;DHT22;66872;63.142;14.482;2023-12-20T09:03:33;16.00;27.70
16532;DHT22;66872;63.142;14.482;2023-12-20T09:05:58;15.90;27.70
16532;DHT22;66872;63.142;14.482;2023-12-20T09:08:24;15.90;27.70
16532;DHT22;66872;63.142;14.482;2023-12-20T09:10:50;15.90;27.70
16532;DHT22;66872;63.142;14.482;2023-12-20T09:13:16;15.90;27.60
16532;DHT22;66872;63.142;14.482;2023-12-20T09:15:41;16.00;27.70
16532;DHT22;66872;63.142;14.482;2023-12-20T09:18:07;15.90;27.60
16532;DHT22;66872;63.142;14.482;2023-12-20T09:20:34;15.90;27.60
16532;DHT22;66872;63.142;14.482;2023-12-20T09:23:00;15.90;27.60
16532;DHT22;66872;63.142;14.482;2023-12-20T09:25:25;15.90;27.70
16532;DHT22;66872;63.142;14.482;2023-12-20T09:27:52;15.90;27.70
16532;DHT22;66872;63.142;14.482;2023-12-20T09:30:18;15.90;27.70
16532;DHT22;66872;63.142;14.482;2023-12-20T09:32:45;15.90;27.80
16532;DHT22;66872;63.142;14.482;2023-12-20T09:35:10;15.90;27.70
16532;DHT22;66872;63.142;14.482;2023-12-20T09:37:36;15.90;27.70
16532;DHT22;66872;63.142;14.482;2023-12-20T09:40:02;15.90;27.70
16532;DHT22;66872;63.142;14.482;2023-12-20T09:45:35;15.80;27.70
16532;DHT22;66872;63.142;14.482;2023-12-20T09:48:01;15.80;27.70
16532;DHT22;66872;63.142;14.482;2023-12-20T09:50:30;15.90;27.70
16532;DHT22;66872;63.142;14.482;2023-12-20T09:52:58;15.90;27.70
16532;DHT22;66872;63.142;14.482;2023-12-20T09:55:27;15.80;27.70
16532;DHT22;66872;63.142;14.482;2023-12-20T09:57:53;15.90;27.70
16532;DHT22;66872;63.142;14.482;2023-12-20T10:00:19;15.90;27.70
16532;DHT22;66872;63.142;14.482;2023-12-20T10:02:58;15.90;27.70
16532;DHT22;66872;63.142;14.482;2023-12-20T10:05:32;15.80;27.70
16532;DHT22;66872;63.142;14.482;2023-12-20T10:07:59;15.90;27.70
16532;DHT22;66872;63.142;14.482;2023-12-20T10:10:25;15.90;27.70
16532;DHT22;66872;63.142;14.482;2023-12-20T10:13:05;15.90;27.70
16532;DHT22;66872;63.142;14.482;2023-12-20T10:15:35;15.90;27.70
16532;DHT22;66872;63.142;14.482;2023-12-20T10:18:02;15.90;27.70
16532;DHT22;66872;63.142;14.482;2023-12-20T10:20:28;15.90;27.70
16532;DHT22;66872;63.142;14.482;2023-12-20T10:22:58;15.90;27.70
16532;DHT22;66872;63.142;14.482;2023-12-20T10:25:24;15.90;27.70
16532;DHT22;66872;63.142;14.482;2023-12-20T10:27:50;15.90;27.70
16532;DHT22;66872;63.142;14.482;2023-12-20T10:30:33;15.90;27.70
16532;DHT22;66872;63.142;14.482;2023-12-20T10:32:59;15.90;27.70
16532;DHT22;66872;63.142;14.482;2023-12-20T10:35:25;15.80;27.70
16532;DHT22;66872;63.142;14.482;2023-12-20T10:37:55;15.80;27.70
16532;DHT22;66872;63.142;14.482;2023-12-20T10:40:22;15.80;27.70
16532;DHT22;66872;63.142;14.482;2023-12-20T10:42:48;15.80;27.70
16532;DHT22;66872;63.142;14.482;2023-12-20T10:45:16;15.80;27.70
16532;DHT22;66872;63.142;14.482;2023-12-20T10:47:46;15.80;27.70
16532;DHT22;66872;63.142;14.482;2023-12-20T10:50:12;15.80;27.70
16532;DHT22;66872;63.142;14.482;2023-12-20T10:52:38;15.80;27.70
16532;DHT22;66872;63.142;14.482;2023-12-20T10:55:06;15.80;27.70
16532;DHT22;66872;63.142;14.482;2023-12-20T10:57:32;15.80;27.80
16532;DHT22;66872;63.142;14.482;2023-12-20T11:00:01;15.80;27.80
16532;DHT22;66872;63.142;14.482;2023-12-20T11:02:32;15.80;27.80
16532;DHT22;66872;63.142;14.482;2023-12-20T11:08:08;15.80;27.80
16532;DHT22;66872;63.142;14.482;2023-12-20T11:10:55;15.80;27.80
16532;DHT22;66872;63.142;14.482;2023-12-20T11:13:29;15.80;27.90
16532;DHT22;66872;63.142;14.482;2023-12-20T11:15:55;15.80;27.90
16532;DHT22;66872;63.142;14.482;2023-12-20T11:18:31;15.70;27.90
16532;DHT22;66872;63.142;14.482;2023-12-20T11:21:05;15.70;27.90
16532;DHT22;66872;63.142;14.482;2023-12-20T11:23:32;15.70;28.40
16532;DHT22;66872;63.142;14.482;2023-12-20T11:25:59;15.70;27.90
16532;DHT22;66872;63.142;14.482;2023-12-20T11:28:27;15.70;27.90
16532;DHT22;66872;63.142;14.482;2023-12-20T11:30:53;15.80;28.00
16532;DHT22;66872;63.142;14.482;2023-12-20T11:33:29;15.80;28.00
16532;DHT22;66872;63.142;14.482;2023-12-20T11:35:56;15.80;27.90
16532;DHT22;66872;63.142;14.482;2023-12-20T11:38:23;15.80;28.00
16532;DHT22;66872;63.142;14.482;2023-12-20T11:40:49;15.70;27.90
16532;DHT22;66872;63.142;14.482;2023-12-20T11:46:03;15.80;28.00
16532;DHT22;66872;63.142;14.482;2023-12-20T11:48:30;15.80;27.90
16532;DHT22;66872;63.142;14.482;2023-12-20T11:50:57;15.80;27.80
16532;DHT22;66872;63.142;14.482;2023-12-20T11:53:22;15.80;27.90
16532;DHT22;66872;63.142;14.482;2023-12-20T11:55:51;15.80;27.90
16532;DHT22;66872;63.142;14.482;2023-12-20T11:58:16;15.80;27.90
16532;DHT22;66872;63.142;14.482;2023-12-20T12:00:42;15.80;27.90
16532;DHT22;66872;63.142;14.482;2023-12-20T12:03:09;15.80;27.90
16532;DHT22;66872;63.142;14.482;2023-12-20T12:05:35;15.80;27.90
16532;DHT22;66872;63.142;14.482;2023-12-20T12:08:02;15.80;27.90
16532;DHT22;66872;63.142;14.482;2023-12-20T12:10:28;15.80;27.90
16532;DHT22;66872;63.142;14.482;2023-12-20T12:12:54;15.80;27.90
16532;DHT22;66872;63.142;14.482;2023-12-20T12:15:20;15.80;27.90
16532;DHT22;66872;63.142;14.482;2023-12-20T12:17:53;15.80;27.90
16532;DHT22;66872;63.142;14.482;2023-12-20T12:20:20;15.80;27.90
16532;DHT22;66872;63.142;14.482;2023-12-20T12:22:46;15.80;27.90
16532;DHT22;66872;63.142;14.482;2023-12-20T12:25:16;15.80;27.90
16532;DHT22;66872;63.142;14.482;2023-12-20T12:27:42;15.80;27.80
16532;DHT22;66872;63.142;14.482;2023-12-20T12:30:09;15.80;27.80
16532;DHT22;66872;63.142;14.482;2023-12-20T12:32:35;15.80;27.80
16532;DHT22;66872;63.142;14.482;2023-12-20T12:35:06;15.80;28.30
16532;DHT22;66872;63.142;14.482;2023-12-20T12:37:34;15.80;27.80
16532;DHT22;66872;63.142;14.482;2023-12-20T12:40:00;15.80;27.80
16532;DHT22;66872;63.142;14.482;2023-12-20T12:42:26;15.80;27.80
16532;DHT22;66872;63.142;14.482;2023-12-20T12:44:54;15.80;27.80
16532;DHT22;66872;63.142;14.482;2023-12-20T12:47:21;15.80;27.80
16532;DHT22;66872;63.142;14.482;2023-12-20T12:49:47;15.80;27.80
16532;DHT22;66872;63.142;14.482;2023-12-20T12:52:13;15.80;27.80
16532;DHT22;66872;63.142;14.482;2023-12-20T12:54:39;15.80;27.80
16532;DHT22;66872;63.142;14.482;2023-12-20T12:57:04;15.80;27.80
16532;DHT22;66872;63.142;14.482;2023-12-20T12:59:30;15.80;27.80
16532;DHT22;66872;63.142;14.482;2023-12-20T13:01:56;15.80;27.80
16532;DHT22;66872;63.142;14.482;2023-12-20T13:04:22;15.80;27.80
16532;DHT22;66872;63.142;14.482;2023-12-20T13:06:48;15.80;27.80
16532;DHT22;66872;63.142;14.482;2023-12-20T13:09:13;15.80;27.80
16532;DHT22;66872;63.142;14.482;2023-12-20T13:11:40;15.80;27.70
16532;DHT22;66872;63.142;14.482;2023-12-20T13:14:06;15.80;27.80
16532;DHT22;66872;63.142;14.482;2023-12-20T13:16:32;15.80;27.70
16532;DHT22;66872;63.142;14.482;2023-12-20T13:18:59;15.80;27.80
16532;DHT22;66872;63.142;14.482;2023-12-20T13:21:25;15.80;27.80
16532;DHT22;66872;63.142;14.482;2023-12-20T13:23:50;15.80;27.80
16532;DHT22;66872;63.142;14.482;2023-12-20T13:26:17;15.80;27.80
16532;DHT22;66872;63.142;14.482;2023-12-20T13:28:43;15.80;27.70
16532;DHT22;66872;63.142;14.482;2023-12-20T13:31:08;15.80;27.70
16532;DHT22;66872;63.142;14.482;2023-12-20T13:33:34;15.80;27.70
16532;DHT22;66872;63.142;14.482;2023-12-20T13:36:00;15.80;27.70
16532;DHT22;66872;63.142;14.482;2023-12-20T13:38:25;15.80;27.70
16532;DHT22;66872;63.142;14.482;2023-12-20T13:40:51;15.80;27.70
16532;DHT22;66872;63.142;14.482;2023-12-20T13:43:17;15.80;27.80
16532;DHT22;66872;63.142;14.482;2023-12-20T13:45:46;15.70;27.90
16532;DHT22;66872;63.142;14.482;2023-12-20T13:48:12;15.80;28.10
16532;DHT22;66872;63.142;14.482;2023-12-20T13:50:37;15.80;28.00
16532;DHT22;66872;63.142;14.482;2023-12-20T13:53:03;15.80;28.00
16532;DHT22;66872;63.142;14.482;2023-12-20T13:55:29;15.80;28.10
16532;DHT22;66872;63.142;14.482;2023-12-20T13:57:56;15.90;28.10
16532;DHT22;66872;63.142;14.482;2023-12-20T14:00:22;15.90;28.10
16532;DHT22;66872;63.142;14.482;2023-12-20T14:02:48;15.90;27.90
16532;DHT22;66872;63.142;14.482;2023-12-20T14:05:14;16.00;27.80
16532;DHT22;66872;63.142;14.482;2023-12-20T14:07:43;16.00;27.70
16532;DHT22;66872;63.142;14.482;2023-12-20T14:10:15;16.10;27.70
16532;DHT22;66872;63.142;14.482;2023-12-20T14:12:41;16.10;27.60
16532;DHT22;66872;63.142;14.482;2023-12-20T14:15:07;16.10;27.60
16532;DHT22;66872;63.142;14.482;2023-12-20T14:17:40;16.10;27.50
16532;DHT22;66872;63.142;14.482;2023-12-20T14:20:07;16.10;27.50
16532;DHT22;66872;63.142;14.482;2023-12-20T14:22:34;16.10;27.40
16532;DHT22;66872;63.142;14.482;2023-12-20T14:25:00;16.10;27.40
16532;DHT22;66872;63.142;14.482;2023-12-20T14:27:26;16.10;27.40
16532;DHT22;66872;63.142;14.482;2023-12-20T14:29:56;16.10;27.40
16532;DHT22;66872;63.142;14.482;2023-12-20T14:32:24;16.10;27.50
16532;DHT22;66872;63.142;14.482;2023-12-20T14:34:51;16.10;26.80
16532;DHT22;66872;63.142;14.482;2023-12-20T14:37:17;16.10;25.30
16532;DHT22;66872;63.142;14.482;2023-12-20T14:39:43;16.10;25.80
16532;DHT22;66872;63.142;14.482;2023-12-20T14:42:08;16.10;25.80
16532;DHT22;66872;63.142;14.482;2023-12-20T14:44:40;16.10;25.80
16532;DHT22;66872;63.142;14.482;2023-12-20T14:47:06;16.10;25.80
16532;DHT22;66872;63.142;14.482;2023-12-20T14:49:32;16.10;25.80
16532;DHT22;66872;63.142;14.482;2023-12-20T14:51:58;16.10;25.80
16532;DHT22;66872;63.142;14.482;2023-12-20T14:54:24;16.10;25.80
16532;DHT22;66872;63.142;14.482;2023-12-20T14:56:49;16.10;25.90
16532;DHT22;66872;63.142;14.482;2023-12-20T14:59:15;16.00;25.80
16532;DHT22;66872;63.142;14.482;2023-12-20T15:01:40;16.10;25.90
16532;DHT22;66872;63.142;14.482;2023-12-20T15:04:09;16.00;25.90
16532;DHT22;66872;63.142;14.482;2023-12-20T15:06:35;16.00;25.90
16532;DHT22;66872;63.142;14.482;2023-12-20T15:09:01;16.00;26.00
16532;DHT22;66872;63.142;14.482;2023-12-20T15:11:30;16.00;26.50
16532;DHT22;66872;63.142;14.482;2023-12-20T15:13:56;16.00;26.10
16532;DHT22;66872;63.142;14.482;2023-12-20T15:16:23;16.00;26.10
16532;DHT22;66872;63.142;14.482;2023-12-20T15:18:49;15.90;26.10